Coe Hill, Canada
Current Conditions -  °F | °C
As of 4:25 PM on Sunday 23 Nov 2014 (Local Time) from CYPQ Reporting Station
Overcast Overcast  
Wind Chill: 41°   Ceiling: 1100
Heat Index: 45°   Visibility: 9mi
Dew Point: 43°   Wind: 6mph
Humidity: 93%   Direction: 130°SE
Pressure: 29.89"   Gusts: NA
Location:  44.85°N, 77.83°W
Report Text: CYPQ 232125Z AUTO 13005KT 120V190 9SM OVC011 07/06 A2989 RMK SLP126
Loading
Personal Weather Stations






























Interactive Weather Map New forecast layout! Learn more

10-Day Weather Forecast

Advertisements
Track Severe Weather on mobile